createdAt,value
2018-04-17T00:00:24.153Z,0
2018-04-17T00:01:04.680Z,0
2018-04-17T00:01:45.157Z,0
2018-04-17T00:02:25.683Z,0
2018-04-17T00:03:06.128Z,0
2018-04-17T00:03:46.610Z,0
2018-04-17T00:04:27.117Z,0
2018-04-17T00:05:07.593Z,0
2018-04-17T00:05:48.070Z,0
2018-04-17T00:06:28.567Z,0
2018-04-17T00:07:09.056Z,0
2018-04-17T00:07:49.521Z,0
2018-04-17T00:08:30.062Z,0
2018-04-17T00:09:10.526Z,0
2018-04-17T00:09:51.053Z,0
2018-04-17T00:10:31.518Z,0
2018-04-17T00:11:12.047Z,0
2018-04-17T00:11:52.568Z,0
2018-04-17T00:12:33.040Z,0
2018-04-17T00:13:13.527Z,0
2018-04-17T00:13:54.035Z,0
2018-04-17T00:14:34.497Z,0
2018-04-17T00:15:15.224Z,0
2018-04-17T00:15:55.705Z,0
2018-04-17T00:16:36.387Z,0
2018-04-17T00:17:16.941Z,0
2018-04-17T00:17:57.433Z,0
2018-04-17T00:18:38.021Z,0
2018-04-17T00:19:18.540Z,0
2018-04-17T00:19:59.066Z,0
2018-04-17T00:20:39.549Z,0
2018-04-17T00:21:20.013Z,0
2018-04-17T00:22:00.523Z,0
2018-04-17T00:22:40.981Z,0
2018-04-17T00:23:21.448Z,0
2018-04-17T00:25:36.501Z,0
2018-04-17T00:26:16.976Z,0
2018-04-17T00:26:57.509Z,0
2018-04-17T00:27:37.969Z,0
2018-04-17T00:28:18.470Z,0
2018-04-17T00:28:58.908Z,0
2018-04-17T00:29:39.408Z,0
2018-04-17T00:30:19.957Z,0
2018-04-17T00:31:02.195Z,0
2018-04-17T00:31:42.704Z,0
2018-04-17T00:32:23.264Z,0
2018-04-17T00:33:03.701Z,0
2018-04-17T00:33:44.163Z,0
2018-04-17T00:34:24.721Z,0
2018-04-17T00:35:05.175Z,0
2018-04-17T00:35:45.667Z,0
2018-04-17T00:36:26.211Z,0
2018-04-17T00:37:06.666Z,0
2018-04-17T00:37:47.219Z,0
2018-04-17T00:38:27.729Z,0
2018-04-17T00:39:08.185Z,0
2018-04-17T00:39:48.677Z,0
2018-04-17T00:40:29.204Z,0
2018-04-17T00:41:09.702Z,0
2018-04-17T00:41:50.229Z,0
2018-04-17T00:42:30.693Z,0
2018-04-17T00:43:11.164Z,0
2018-04-17T00:43:51.664Z,0
2018-04-17T00:44:32.129Z,0
2018-04-17T00:45:12.708Z,0
2018-04-17T00:45:53.135Z,0
2018-04-17T00:46:33.566Z,0
2018-04-17T00:47:14.112Z,0
2018-04-17T00:47:54.563Z,0
2018-04-17T00:48:35.049Z,0
2018-04-17T00:49:15.732Z,0
2018-04-17T00:49:56.233Z,0
2018-04-17T00:50:36.680Z,0
2018-04-17T00:51:17.221Z,0
2018-04-17T00:51:57.633Z,0
2018-04-17T00:52:39.074Z,0
2018-04-17T00:53:19.549Z,0
2018-04-17T00:53:59.990Z,0
2018-04-17T00:54:40.501Z,0
2018-04-17T00:55:21.003Z,0
2018-04-17T00:56:01.451Z,0
2018-04-17T00:56:41.954Z,0
2018-04-17T00:57:22.421Z,0
2018-04-17T00:58:02.953Z,0
2018-04-17T00:58:43.426Z,0
2018-04-17T00:59:23.919Z,0
2018-04-17T01:00:04.381Z,0
2018-04-17T01:00:44.868Z,0
2018-04-17T01:01:25.388Z,0
2018-04-17T01:02:05.848Z,0
2018-04-17T01:02:46.371Z,0
2018-04-17T01:03:26.812Z,0
2018-04-17T01:04:07.287Z,0
2018-04-17T01:04:47.834Z,0
2018-04-17T01:05:28.285Z,0
2018-04-17T01:06:08.794Z,0
2018-04-17T01:06:49.292Z,0
2018-04-17T01:07:29.827Z,0
2018-04-17T01:08:10.269Z,0
2018-04-17T01:08:50.790Z,0
2018-04-17T01:09:31.286Z,0
2018-04-17T01:10:11.718Z,0
2018-04-17T01:10:52.201Z,0
2018-04-17T01:11:32.734Z,0
2018-04-17T01:12:13.266Z,0
2018-04-17T01:12:53.723Z,0
2018-04-17T01:13:34.230Z,0
2018-04-17T01:14:14.719Z,0
2018-04-17T01:14:55.206Z,0
2018-04-17T01:15:35.714Z,0
2018-04-17T01:16:16.196Z,0
2018-04-17T01:16:56.748Z,0
2018-04-17T01:17:37.206Z,0
2018-04-17T01:18:17.683Z,0
2018-04-17T01:18:58.210Z,0
2018-04-17T01:19:38.706Z,0
2018-04-17T01:20:19.184Z,0
2018-04-17T01:20:59.706Z,0
2018-04-17T01:21:40.170Z,0
2018-04-17T01:22:20.651Z,0
2018-04-17T01:23:01.117Z,0
2018-04-17T01:23:41.680Z,0
2018-04-17T01:24:22.199Z,0
2018-04-17T01:25:02.734Z,0
2018-04-17T01:25:43.212Z,0
2018-04-17T01:26:23.775Z,0
2018-04-17T01:27:04.223Z,0
2018-04-17T01:27:44.754Z,0
2018-04-17T01:28:25.271Z,0
2018-04-17T01:29:05.768Z,0
2018-04-17T01:29:46.280Z,0
2018-04-17T01:30:26.763Z,0
2018-04-17T01:31:07.266Z,0
2018-04-17T01:31:47.782Z,0
2018-04-17T01:32:28.259Z,0
2018-04-17T01:33:08.765Z,0
2018-04-17T01:33:49.258Z,0
2018-04-17T01:34:29.768Z,0
2018-04-17T01:35:10.323Z,0
2018-04-17T01:35:50.837Z,0
2018-04-17T01:36:31.311Z,0
2018-04-17T01:37:11.810Z,0
2018-04-17T01:37:52.296Z,0
2018-04-17T01:38:32.774Z,0
2018-04-17T01:39:13.212Z,0
2018-04-17T01:39:53.731Z,0
2018-04-17T01:40:34.252Z,0
2018-04-17T01:41:14.719Z,0
2018-04-17T01:41:55.172Z,0
2018-04-17T01:42:35.695Z,0
2018-04-17T01:43:16.211Z,0
2018-04-17T01:43:56.711Z,0
2018-04-17T01:44:37.210Z,0
2018-04-17T01:45:17.641Z,0
2018-04-17T01:45:58.192Z,0
2018-04-17T01:46:38.984Z,0
2018-04-17T01:47:19.475Z,0
2018-04-17T01:48:00.053Z,0
2018-04-17T01:48:40.494Z,0
2018-04-17T01:49:20.970Z,0
2018-04-17T01:50:01.475Z,0
2018-04-17T01:50:41.983Z,0
2018-04-17T01:51:22.386Z,0
2018-04-17T01:52:02.926Z,0
2018-04-17T01:52:43.410Z,0
2018-04-17T01:53:23.912Z,0
2018-04-17T01:54:04.360Z,0
2018-04-17T01:54:44.863Z,0
2018-04-17T01:55:25.398Z,0
2018-04-17T01:56:05.838Z,0
2018-04-17T01:56:46.411Z,0
2018-04-17T01:57:26.920Z,0
2018-04-17T01:58:07.565Z,0
2018-04-17T01:58:47.996Z,0
2018-04-17T01:59:28.556Z,0
2018-04-17T02:00:08.983Z,0
2018-04-17T02:00:49.499Z,0
2018-04-17T02:01:30.016Z,0
2018-04-17T02:02:10.473Z,0
2018-04-17T02:02:50.981Z,0
2018-04-17T02:03:31.462Z,0
2018-04-17T02:04:11.957Z,0
2018-04-17T02:04:52.457Z,0
2018-04-17T02:05:32.905Z,0
2018-04-17T02:06:13.416Z,0
2018-04-17T02:06:53.908Z,0
2018-04-17T02:07:34.357Z,0
2018-04-17T02:08:14.852Z,0
2018-04-17T02:08:55.335Z,0
2018-04-17T02:09:35.826Z,0
2018-04-17T02:10:16.300Z,0
2018-04-17T02:10:56.770Z,0
2018-04-17T02:11:37.293Z,0
2018-04-17T02:12:17.797Z,0
2018-04-17T02:12:58.279Z,0
2018-04-17T02:13:38.731Z,0
2018-04-17T02:14:19.216Z,0
2018-04-17T02:14:59.754Z,0
2018-04-17T02:15:40.193Z,0
2018-04-17T02:16:20.705Z,0
2018-04-17T02:17:01.188Z,0
2018-04-17T02:17:41.644Z,0
2018-04-17T02:18:22.148Z,0
2018-04-17T02:19:02.635Z,0
2018-04-17T02:19:43.132Z,0
2018-04-17T02:20:23.595Z,0
2018-04-17T02:21:04.080Z,0
2018-04-17T02:21:44.614Z,0
2018-04-17T02:22:25.114Z,0
2018-04-17T02:23:05.607Z,0
2018-04-17T02:23:46.068Z,0
2018-04-17T02:24:26.579Z,0
2018-04-17T02:25:07.064Z,0
2018-04-17T02:25:47.581Z,0
2018-04-17T02:26:28.036Z,0
2018-04-17T02:27:08.508Z,0
2018-04-17T02:27:49.042Z,0
2018-04-17T02:28:29.526Z,0
2018-04-17T02:29:10.046Z,0
2018-04-17T02:29:50.539Z,0
2018-04-17T02:30:30.958Z,0
2018-04-17T02:31:11.468Z,0
2018-04-17T02:31:51.958Z,0
2018-04-17T02:32:32.436Z,0
2018-04-17T02:33:12.951Z,0
2018-04-17T02:33:53.461Z,0
2018-04-17T02:34:33.924Z,0
2018-04-17T02:35:14.491Z,0
2018-04-17T02:35:54.976Z,0
2018-04-17T02:36:35.412Z,0
2018-04-17T02:37:15.932Z,0
2018-04-17T02:37:56.389Z,0
2018-04-17T02:38:36.870Z,0
2018-04-17T02:39:17.390Z,0
2018-04-17T02:39:58.831Z,0
2018-04-17T02:40:39.350Z,0
2018-04-17T02:41:19.851Z,0
2018-04-17T02:42:00.319Z,0
2018-04-17T02:42:40.779Z,0
2018-04-17T02:43:21.385Z,0
2018-04-17T02:44:01.884Z,0
2018-04-17T02:44:42.321Z,0
2018-04-17T02:45:22.844Z,0
2018-04-17T02:46:03.347Z,0
2018-04-17T02:46:43.788Z,0
2018-04-17T02:47:24.300Z,0
2018-04-17T02:48:04.785Z,0
2018-04-17T02:48:45.248Z,0
2018-04-17T02:49:25.746Z,0
2018-04-17T02:50:06.200Z,0
2018-04-17T02:50:46.751Z,0
2018-04-17T02:51:27.233Z,0
2018-04-17T02:52:07.733Z,0
2018-04-17T02:52:48.231Z,0
2018-04-17T02:53:28.678Z,0
2018-04-17T02:54:09.158Z,0
2018-04-17T02:54:49.683Z,0
2018-04-17T02:55:30.165Z,0
2018-04-17T02:56:10.707Z,0
2018-04-17T02:56:51.134Z,0
2018-04-17T02:57:31.657Z,0
2018-04-17T02:58:12.127Z,0
2018-04-17T02:58:52.618Z,0
2018-04-17T02:59:33.143Z,0
2018-04-17T03:00:13.655Z,0
2018-04-17T03:00:54.197Z,0
2018-04-17T03:01:34.697Z,0
2018-04-17T03:02:15.178Z,0
2018-04-17T03:02:55.635Z,0
2018-04-17T03:03:36.174Z,0
2018-04-17T03:04:16.628Z,0
2018-04-17T03:04:57.118Z,0
2018-04-17T03:05:37.592Z,0
2018-04-17T03:06:18.109Z,0
2018-04-17T03:06:58.609Z,0
2018-04-17T03:07:39.056Z,0
2018-04-17T03:08:19.542Z,0
2018-04-17T03:09:00.103Z,0
2018-04-17T03:09:40.537Z,0
2018-04-17T03:10:20.989Z,0
2018-04-17T03:11:01.484Z,0
2018-04-17T03:11:41.964Z,0
2018-04-17T03:12:22.423Z,0
2018-04-17T03:13:02.930Z,0
2018-04-17T03:13:43.442Z,0
2018-04-17T03:14:23.955Z,0
2018-04-17T03:15:04.444Z,0
2018-04-17T03:15:44.957Z,0
2018-04-17T03:16:25.405Z,0
2018-04-17T03:17:05.920Z,0
2018-04-17T03:17:46.368Z,0
2018-04-17T03:18:26.875Z,0
2018-04-17T03:19:07.353Z,0
2018-04-17T03:19:47.891Z,0
2018-04-17T03:20:28.372Z,0
2018-04-17T03:21:08.871Z,0
2018-04-17T03:21:49.380Z,0
2018-04-17T03:22:29.913Z,0
2018-04-17T03:23:10.373Z,0
2018-04-17T03:23:50.850Z,0
2018-04-17T03:24:31.365Z,0
2018-04-17T03:25:11.847Z,0
2018-04-17T03:25:52.357Z,0
2018-04-17T03:26:32.834Z,0
2018-04-17T03:27:13.366Z,0
2018-04-17T03:27:53.879Z,0
2018-04-17T03:28:34.315Z,0
2018-04-17T03:29:14.806Z,0
2018-04-17T03:29:55.286Z,0
2018-04-17T03:30:35.778Z,0
2018-04-17T03:31:16.267Z,0
2018-04-17T03:31:56.739Z,0
2018-04-17T03:32:37.260Z,0
2018-04-17T03:33:17.770Z,0
2018-04-17T03:33:58.244Z,0
2018-04-17T03:34:38.737Z,0
2018-04-17T03:35:19.253Z,0
2018-04-17T03:36:00.548Z,0
2018-04-17T03:36:43.673Z,0
2018-04-17T03:37:24.142Z,0
2018-04-17T03:38:04.570Z,0
2018-04-17T03:38:45.040Z,0
2018-04-17T03:39:25.565Z,0
2018-04-17T03:40:06.042Z,0
2018-04-17T03:40:46.511Z,0
2018-04-17T03:41:27.010Z,0
2018-04-17T03:42:07.512Z,0
2018-04-17T03:42:48.021Z,0
2018-04-17T03:43:28.490Z,0
2018-04-17T03:44:08.962Z,0
2018-04-17T03:44:49.433Z,0
2018-04-17T03:45:29.963Z,0
2018-04-17T03:46:10.407Z,0
2018-04-17T03:46:50.879Z,0
2018-04-17T03:47:31.407Z,0
2018-04-17T03:48:11.911Z,0
2018-04-17T03:48:52.398Z,0
2018-04-17T03:49:32.864Z,0
2018-04-17T03:50:13.372Z,0
2018-04-17T03:50:53.854Z,0
2018-04-17T03:51:34.365Z,0
2018-04-17T03:52:14.808Z,0
2018-04-17T03:52:55.333Z,0
2018-04-17T03:53:35.873Z,0
2018-04-17T03:54:16.357Z,0
2018-04-17T03:54:56.827Z,0
2018-04-17T03:55:37.374Z,0
2018-04-17T03:56:17.820Z,0
2018-04-17T03:56:58.328Z,0
2018-04-17T03:57:38.794Z,0
2018-04-17T03:58:19.315Z,0
2018-04-17T03:58:59.843Z,0
2018-04-17T03:59:40.294Z,0
2018-04-17T04:00:20.760Z,0
2018-04-17T04:01:01.291Z,0
2018-04-17T04:01:41.798Z,0
2018-04-17T04:02:22.321Z,0
2018-04-17T04:03:02.792Z,0
2018-04-17T04:03:43.271Z,0
2018-04-17T04:04:23.802Z,0
2018-04-17T04:05:04.349Z,0
2018-04-17T04:05:44.800Z,0
2018-04-17T04:06:25.328Z,0
2018-04-17T04:07:05.851Z,0
2018-04-17T04:07:46.338Z,0
2018-04-17T04:08:26.822Z,0
2018-04-17T04:09:07.338Z,0
2018-04-17T04:09:47.814Z,0
2018-04-17T04:10:28.290Z,0
2018-04-17T04:11:08.757Z,0
2018-04-17T04:11:49.294Z,0
2018-04-17T04:12:29.751Z,0
2018-04-17T04:13:11.227Z,0
2018-04-17T04:13:51.688Z,0
2018-04-17T04:14:32.238Z,0
2018-04-17T04:15:12.845Z,0
2018-04-17T04:15:53.190Z,0
2018-04-17T04:16:33.668Z,0
2018-04-17T04:17:14.164Z,0
2018-04-17T04:17:54.739Z,0
2018-04-17T04:18:35.185Z,0
2018-04-17T04:19:15.649Z,0
2018-04-17T04:19:56.165Z,0
2018-04-17T04:20:36.635Z,0
2018-04-17T04:21:17.144Z,0
2018-04-17T04:21:57.700Z,0
2018-04-17T04:22:38.177Z,0
2018-04-17T04:23:18.744Z,0
2018-04-17T04:23:59.174Z,0
2018-04-17T04:24:39.696Z,0
2018-04-17T04:25:20.248Z,0
2018-04-17T04:26:00.812Z,0
2018-04-17T04:26:41.284Z,5
2018-04-17T04:27:21.759Z,5
2018-04-17T04:28:02.251Z,5
2018-04-17T04:28:42.736Z,5
2018-04-17T04:29:23.779Z,5
2018-04-17T04:30:04.258Z,5
2018-04-17T04:30:44.955Z,5
2018-04-17T04:31:25.564Z,5
2018-04-17T04:32:06.039Z,5
2018-04-17T04:32:46.736Z,5
2018-04-17T04:33:27.212Z,5
2018-04-17T04:34:07.708Z,10
2018-04-17T04:34:48.266Z,10
2018-04-17T04:35:28.670Z,10
2018-04-17T04:36:13.060Z,10
2018-04-17T04:36:53.550Z,10
2018-04-17T04:37:34.053Z,10
2018-04-17T04:38:14.514Z,10
2018-04-17T04:38:54.997Z,10
2018-04-17T04:39:35.459Z,15
2018-04-17T04:40:15.960Z,15
2018-04-17T04:40:56.459Z,15
2018-04-17T04:41:37.055Z,15
2018-04-17T04:42:17.540Z,15
2018-04-17T04:42:57.951Z,15
2018-04-17T04:43:38.455Z,15
2018-04-17T04:44:19.015Z,20
2018-04-17T04:44:59.534Z,20
2018-04-17T04:45:39.981Z,20
2018-04-17T04:46:20.503Z,20
2018-04-17T04:47:02.615Z,20
2018-04-17T04:47:43.592Z,20
2018-04-17T04:48:24.054Z,25
2018-04-17T04:49:04.565Z,25
2018-04-17T04:49:45.096Z,25
2018-04-17T04:50:25.524Z,25
2018-04-17T04:51:06.058Z,25
2018-04-17T04:51:46.517Z,30
2018-04-17T04:52:27.009Z,30
2018-04-17T04:53:07.458Z,30
2018-04-17T04:53:47.968Z,30
2018-04-17T04:54:28.483Z,30
2018-04-17T04:55:08.992Z,35
2018-04-17T04:55:49.468Z,35
2018-04-17T04:56:29.968Z,35
2018-04-17T04:57:11.114Z,35
2018-04-17T04:57:51.056Z,35
2018-04-17T04:58:31.571Z,40
2018-04-17T04:59:12.047Z,40
2018-04-17T04:59:52.590Z,40
2018-04-17T05:00:33.123Z,40
2018-04-17T05:01:13.620Z,40
2018-04-17T05:01:54.069Z,45
2018-04-17T05:02:34.618Z,45
2018-04-17T05:03:15.100Z,45
2018-04-17T05:03:55.586Z,45
2018-04-17T05:04:36.062Z,45
2018-04-17T05:05:16.590Z,50
2018-04-17T05:05:57.097Z,50
2018-04-17T05:06:37.601Z,50
2018-04-17T05:07:18.153Z,50
2018-04-17T05:07:58.655Z,50
2018-04-17T05:08:39.169Z,55
2018-04-17T05:09:19.651Z,55
2018-04-17T05:10:00.161Z,55
2018-04-17T05:10:40.688Z,55
2018-04-17T05:11:21.204Z,60
2018-04-17T05:12:01.700Z,60
2018-04-17T05:12:42.201Z,60
2018-04-17T05:13:22.684Z,60
2018-04-17T05:14:03.144Z,60
2018-04-17T05:14:43.646Z,65
2018-04-17T05:15:24.149Z,65
2018-04-17T05:16:04.655Z,65
2018-04-17T05:16:45.150Z,65
2018-04-17T05:17:25.676Z,65
2018-04-17T05:18:06.248Z,70
2018-04-17T05:18:46.662Z,70
2018-04-17T05:19:27.142Z,70
2018-04-17T05:20:07.781Z,70
2018-04-17T05:20:48.549Z,70
2018-04-17T05:21:29.050Z,75
2018-04-17T05:22:09.617Z,75
2018-04-17T05:22:50.163Z,75
2018-04-17T05:23:30.618Z,75
2018-04-17T05:24:11.239Z,75
2018-04-17T05:24:51.767Z,75
2018-04-17T05:25:32.240Z,75
2018-04-17T05:26:12.819Z,80
2018-04-17T05:26:53.311Z,80
2018-04-17T05:27:33.769Z,80
2018-04-17T05:28:14.263Z,80
2018-04-17T05:28:54.919Z,80
2018-04-17T05:29:35.346Z,80
2018-04-17T05:30:15.838Z,80
2018-04-17T05:30:56.408Z,80
2018-04-17T05:31:36.860Z,80
2018-04-17T05:32:17.369Z,85
2018-04-17T05:32:57.884Z,80
2018-04-17T05:33:38.390Z,85
2018-04-17T05:34:18.920Z,85
2018-04-17T05:34:59.416Z,85
2018-04-17T05:35:39.915Z,90
2018-04-17T05:36:20.357Z,90
2018-04-17T05:37:00.893Z,90
2018-04-17T05:37:41.450Z,90
2018-04-17T05:38:22.025Z,95
2018-04-17T05:39:02.610Z,95
2018-04-17T05:39:43.099Z,95
2018-04-17T05:40:23.596Z,95
2018-04-17T05:41:04.453Z,95
2018-04-17T05:41:44.586Z,95
2018-04-17T05:42:25.047Z,100
2018-04-17T05:43:05.813Z,100
2018-04-17T05:43:46.270Z,100
2018-04-17T05:44:26.756Z,105
2018-04-17T05:45:07.269Z,105
2018-04-17T05:45:47.765Z,105
2018-04-17T05:46:28.567Z,105
2018-04-17T05:47:09.124Z,105
2018-04-17T05:47:49.625Z,105
2018-04-17T05:48:30.109Z,105
2018-04-17T05:49:10.669Z,105
2018-04-17T05:49:51.167Z,105
2018-04-17T05:50:31.624Z,105
2018-04-17T05:51:12.167Z,110
2018-04-17T05:51:52.675Z,110
2018-04-17T05:52:33.205Z,110
2018-04-17T05:53:13.716Z,110
2018-04-17T05:53:54.282Z,110
2018-04-17T05:54:34.838Z,110
2018-04-17T05:55:15.514Z,110
2018-04-17T05:55:56.185Z,115
2018-04-17T05:56:36.579Z,115
2018-04-17T05:57:17.089Z,115
2018-04-17T05:57:57.681Z,120
2018-04-17T05:58:38.375Z,120
2018-04-17T05:59:19.645Z,120
2018-04-17T05:59:59.439Z,120
2018-04-17T06:00:40.146Z,120
2018-04-17T06:01:20.542Z,120
2018-04-17T06:02:01.043Z,120
2018-04-17T06:02:41.512Z,120
2018-04-17T06:03:22.037Z,125
2018-04-17T06:04:02.539Z,125
2018-04-17T06:04:43.140Z,125
2018-04-17T06:05:23.700Z,125
2018-04-17T06:06:04.196Z,125
2018-04-17T06:06:44.730Z,125
2018-04-17T06:07:25.345Z,125
2018-04-17T06:08:05.879Z,125
2018-04-17T06:08:46.581Z,125
2018-04-17T06:09:26.930Z,125
2018-04-17T06:10:07.446Z,125
2018-04-17T06:10:47.975Z,125
2018-04-17T06:11:28.481Z,125
2018-04-17T06:12:09.040Z,125
2018-04-17T06:12:49.519Z,125
2018-04-17T06:13:30.013Z,125
2018-04-17T06:14:10.618Z,125
2018-04-17T06:14:51.040Z,125
2018-04-17T06:15:31.546Z,125
2018-04-17T06:16:12.142Z,125
2018-04-17T06:16:52.822Z,130
2018-04-17T06:17:33.413Z,130
2018-04-17T06:18:14.212Z,130
2018-04-17T06:18:54.699Z,130
2018-04-17T06:19:35.296Z,130
2018-04-17T06:20:15.813Z,130
2018-04-17T06:20:56.306Z,135
2018-04-17T06:21:36.800Z,135
2018-04-17T06:22:17.376Z,135
2018-04-17T06:22:57.977Z,135
2018-04-17T06:23:38.432Z,135
2018-04-17T06:24:19.017Z,135
2018-04-17T06:24:59.567Z,135
2018-04-17T06:25:43.038Z,135
2018-04-17T06:26:23.563Z,135
2018-04-17T06:27:04.081Z,135
2018-04-17T06:27:44.561Z,135
2018-04-17T06:28:25.097Z,135
2018-04-17T06:29:05.581Z,135
2018-04-17T06:29:46.108Z,135
2018-04-17T06:30:26.622Z,135
2018-04-17T06:31:07.085Z,135
2018-04-17T06:31:47.574Z,135
2018-04-17T06:32:28.048Z,135
2018-04-17T06:33:08.616Z,135
2018-04-17T06:33:49.137Z,135
2018-04-17T06:34:29.638Z,140
2018-04-17T06:35:10.242Z,140
2018-04-17T06:35:50.631Z,140
2018-04-17T06:36:31.121Z,140
2018-04-17T06:37:11.823Z,140
2018-04-17T06:37:52.350Z,145
2018-04-17T06:38:32.909Z,145
2018-04-17T06:39:13.363Z,145
2018-04-17T06:39:53.886Z,150
2018-04-17T06:40:34.402Z,155
2018-04-17T06:41:14.866Z,155
2018-04-17T06:41:55.362Z,155
2018-04-17T06:42:35.854Z,155
2018-04-17T06:43:16.315Z,160
2018-04-17T06:43:56.823Z,160
2018-04-17T06:44:37.321Z,165
2018-04-17T06:45:17.840Z,165
2018-04-17T06:45:58.326Z,165
2018-04-17T06:46:38.816Z,165
2018-04-17T06:47:19.370Z,165
2018-04-17T06:47:59.881Z,165
2018-04-17T06:48:40.407Z,165
2018-04-17T06:49:20.926Z,165
2018-04-17T06:50:01.445Z,165
2018-04-17T06:50:41.956Z,160
2018-04-17T06:51:22.463Z,160
2018-04-17T06:52:02.993Z,155
2018-04-17T06:52:43.531Z,155
2018-04-17T06:53:24.051Z,155
2018-04-17T06:54:04.556Z,155
2018-04-17T06:54:45.077Z,150
2018-04-17T06:55:25.578Z,150
2018-04-17T06:56:06.114Z,145
2018-04-17T06:56:46.631Z,145
2018-04-17T06:57:27.152Z,145
2018-04-17T06:58:07.667Z,145
2018-04-17T06:58:48.220Z,145
2018-04-17T06:59:28.733Z,145
2018-04-17T07:00:09.258Z,145
2018-04-17T07:00:49.759Z,150
2018-04-17T07:01:30.293Z,155
2018-04-17T07:02:10.816Z,160
2018-04-17T07:02:51.344Z,160
2018-04-17T07:03:31.878Z,165
2018-04-17T07:04:12.391Z,175
2018-04-17T07:04:52.875Z,185
2018-04-17T07:05:33.406Z,185
2018-04-17T07:06:13.944Z,190
2018-04-17T07:06:54.440Z,190
2018-04-17T07:07:34.953Z,190
2018-04-17T07:08:15.477Z,190
2018-04-17T07:08:55.987Z,195
2018-04-17T07:09:36.500Z,195
2018-04-17T07:10:17.009Z,195
2018-04-17T07:10:57.492Z,195
2018-04-17T07:11:38.002Z,195
2018-04-17T07:12:18.516Z,195
2018-04-17T07:12:59.027Z,195
2018-04-17T07:13:39.534Z,195
2018-04-17T07:14:20.058Z,195
2018-04-17T07:15:00.557Z,195
2018-04-17T07:15:41.078Z,195
2018-04-17T07:16:21.590Z,200
2018-04-17T07:17:02.114Z,200
2018-04-17T07:17:42.552Z,200
2018-04-17T07:18:23.098Z,200
2018-04-17T07:19:03.607Z,195
2018-04-17T07:19:44.080Z,195
2018-04-17T07:20:24.558Z,195
2018-04-17T07:21:05.092Z,195
2018-04-17T07:21:45.603Z,195
2018-04-17T07:22:26.071Z,195
2018-04-17T07:23:06.571Z,195
2018-04-17T07:23:47.109Z,195
2018-04-17T07:24:27.557Z,195
2018-04-17T07:25:08.052Z,195
2018-04-17T07:25:48.548Z,195
2018-04-17T07:26:29.006Z,195
2018-04-17T07:27:09.547Z,195
2018-04-17T07:27:50.072Z,195
2018-04-17T07:28:30.581Z,195
2018-04-17T07:29:11.101Z,190
2018-04-17T07:29:51.616Z,190
2018-04-17T07:30:32.156Z,190
2018-04-17T07:31:12.712Z,190
2018-04-17T07:31:53.226Z,190
2018-04-17T07:32:33.694Z,190
2018-04-17T07:33:14.210Z,190
2018-04-17T07:33:54.712Z,190
2018-04-17T07:34:35.222Z,190
2018-04-17T07:35:15.729Z,190
2018-04-17T07:35:56.226Z,190
2018-04-17T07:36:36.723Z,185
2018-04-17T07:37:17.333Z,185
2018-04-17T07:37:57.810Z,185
2018-04-17T07:40:13.832Z,185
2018-04-17T07:40:54.361Z,180
2018-04-17T07:41:34.867Z,180
2018-04-17T07:42:15.391Z,180
2018-04-17T07:42:55.907Z,180
2018-04-17T07:43:36.410Z,180
2018-04-17T07:44:16.932Z,180
2018-04-17T07:44:57.460Z,175
2018-04-17T07:45:38.026Z,175
2018-04-17T07:46:18.537Z,175
2018-04-17T07:46:59.066Z,175
2018-04-17T07:47:39.580Z,175
2018-04-17T07:48:20.078Z,175
2018-04-17T07:49:00.607Z,170
2018-04-17T07:49:41.118Z,175
2018-04-17T07:50:21.641Z,170
2018-04-17T07:51:02.152Z,170
2018-04-17T07:51:43.689Z,170
2018-04-17T07:52:24.193Z,165
2018-04-17T07:53:04.710Z,165
2018-04-17T07:53:45.284Z,165
2018-04-17T07:54:25.803Z,165
2018-04-17T07:55:06.325Z,160
2018-04-17T07:55:46.894Z,155
2018-04-17T07:56:27.377Z,155
2018-04-17T07:57:07.904Z,155
2018-04-17T07:57:48.429Z,150
2018-04-17T07:58:28.937Z,150
2018-04-17T07:59:09.501Z,150
2018-04-17T07:59:50.018Z,150
2018-04-17T08:00:30.535Z,150
2018-04-17T08:01:11.044Z,150
2018-04-17T08:01:51.568Z,150
2018-04-17T08:02:32.085Z,150
2018-04-17T08:03:12.693Z,145
2018-04-17T08:03:53.224Z,145
2018-04-17T08:04:33.738Z,145
2018-04-17T08:05:14.248Z,145
2018-04-17T08:05:54.779Z,145
2018-04-17T08:06:35.459Z,145
2018-04-17T08:07:15.990Z,145
2018-04-17T08:07:56.489Z,145
2018-04-17T08:08:37.003Z,145
2018-04-17T08:09:17.544Z,140
2018-04-17T08:09:58.072Z,140
2018-04-17T08:10:38.588Z,140
2018-04-17T08:11:19.097Z,140
2018-04-17T08:11:59.656Z,140
2018-04-17T08:12:40.196Z,140
2018-04-17T08:13:20.710Z,140
2018-04-17T08:14:01.244Z,135
2018-04-17T08:14:41.777Z,135
2018-04-17T08:15:22.293Z,135
2018-04-17T08:16:02.838Z,135
2018-04-17T08:16:43.349Z,135
2018-04-17T08:17:23.848Z,135
2018-04-17T08:18:04.360Z,135
2018-04-17T08:18:44.876Z,135
2018-04-17T08:19:25.432Z,135
2018-04-17T08:20:05.938Z,135
2018-04-17T08:20:46.549Z,135
2018-04-17T08:21:27.041Z,135
2018-04-17T08:22:07.576Z,135
2018-04-17T08:22:48.109Z,130
2018-04-17T08:23:28.592Z,130
2018-04-17T08:24:09.118Z,130
2018-04-17T08:24:49.639Z,130
2018-04-17T08:25:30.161Z,130
2018-04-17T08:26:10.677Z,130
2018-04-17T08:26:51.205Z,130
2018-04-17T08:27:31.710Z,130
2018-04-17T08:28:12.233Z,130
2018-04-17T08:28:52.776Z,130
2018-04-17T08:29:33.338Z,130
2018-04-17T08:30:13.893Z,130
2018-04-17T08:30:54.424Z,130
2018-04-17T08:31:34.939Z,130
2018-04-17T08:32:15.457Z,130
2018-04-17T08:32:55.978Z,130
2018-04-17T08:33:36.512Z,130
2018-04-17T08:34:17.030Z,130
2018-04-17T08:34:57.544Z,130
2018-04-17T08:35:38.073Z,130
2018-04-17T08:36:18.576Z,130
2018-04-17T08:36:59.128Z,130
2018-04-17T08:37:39.704Z,130
2018-04-17T08:38:20.231Z,130
2018-04-17T08:39:00.738Z,125
2018-04-17T08:39:41.293Z,125
2018-04-17T08:40:21.841Z,125
2018-04-17T08:41:02.366Z,125
2018-04-17T08:41:42.877Z,125
2018-04-17T08:42:23.414Z,125
2018-04-17T08:43:04.114Z,125
2018-04-17T08:43:44.638Z,125
2018-04-17T08:44:25.146Z,125
2018-04-17T08:45:05.637Z,125
2018-04-17T08:45:46.158Z,125
2018-04-17T08:46:26.710Z,125
2018-04-17T08:47:07.325Z,125
2018-04-17T08:47:47.785Z,125
2018-04-17T08:48:28.281Z,125
2018-04-17T08:49:08.806Z,125
2018-04-17T08:49:49.277Z,125
2018-04-17T08:50:29.816Z,125
2018-04-17T08:51:10.400Z,125
2018-04-17T08:51:50.901Z,125
2018-04-17T08:52:31.412Z,125
2018-04-17T08:53:11.855Z,125
2018-04-17T08:53:52.377Z,125
2018-04-17T08:54:32.942Z,125
2018-04-17T08:55:13.578Z,125
2018-04-17T08:55:54.100Z,125
2018-04-17T08:56:34.594Z,125
2018-04-17T08:57:15.120Z,125
2018-04-17T08:57:55.815Z,125
2018-04-17T08:58:36.318Z,125
2018-04-17T08:59:16.824Z,125
2018-04-17T08:59:57.352Z,125
2018-04-17T09:00:37.805Z,125
2018-04-17T09:01:18.252Z,125
2018-04-17T09:01:58.764Z,125
2018-04-17T09:02:39.271Z,125
2018-04-17T09:03:19.724Z,125
2018-04-17T09:04:00.203Z,125
2018-04-17T09:04:40.699Z,125
2018-04-17T09:05:21.203Z,125
2018-04-17T09:06:01.744Z,125
2018-04-17T09:06:42.228Z,125
2018-04-17T09:07:22.709Z,125
2018-04-17T09:08:03.266Z,120
2018-04-17T09:08:43.821Z,120
2018-04-17T09:09:24.270Z,120
2018-04-17T09:10:04.716Z,120
2018-04-17T09:10:45.219Z,120
2018-04-17T09:11:25.713Z,120
2018-04-17T09:12:06.205Z,120
2018-04-17T09:12:46.769Z,120
2018-04-17T09:13:27.209Z,120
2018-04-17T09:14:07.700Z,120
2018-04-17T09:14:48.197Z,120
2018-04-17T09:15:28.707Z,120
2018-04-17T09:16:09.197Z,120
2018-04-17T09:16:49.645Z,120
2018-04-17T09:17:30.211Z,120
2018-04-17T09:18:10.696Z,120
2018-04-17T09:18:51.233Z,120
2018-04-17T09:19:31.660Z,120
2018-04-17T09:20:12.196Z,120
2018-04-17T09:20:52.764Z,120
2018-04-17T09:21:33.219Z,120
2018-04-17T09:22:13.703Z,120
2018-04-17T09:22:54.184Z,120
2018-04-17T09:23:34.711Z,120
2018-04-17T09:24:15.219Z,120
2018-04-17T09:24:55.707Z,120
2018-04-17T09:25:36.159Z,115
2018-04-17T09:26:16.712Z,115
2018-04-17T09:26:57.239Z,115
2018-04-17T09:27:37.709Z,115
2018-04-17T09:28:18.129Z,115
2018-04-17T09:28:58.654Z,115
2018-04-17T09:29:39.118Z,115
2018-04-17T09:30:19.648Z,115
2018-04-17T09:31:00.159Z,115
2018-04-17T09:31:40.623Z,115
2018-04-17T09:32:21.110Z,115
2018-04-17T09:33:01.607Z,110
2018-04-17T09:33:42.138Z,110
2018-04-17T09:34:22.590Z,110
2018-04-17T09:35:03.073Z,110
2018-04-17T09:35:43.560Z,110
2018-04-17T09:36:24.096Z,110
2018-04-17T09:37:04.577Z,110
2018-04-17T09:37:45.283Z,110
2018-04-17T09:38:25.777Z,110
2018-04-17T09:39:06.273Z,110
2018-04-17T09:39:46.792Z,110
2018-04-17T09:40:27.297Z,110
2018-04-17T09:41:07.856Z,110
2018-04-17T09:41:48.310Z,110
2018-04-17T09:42:28.884Z,110